Time;durP1;ratioP1;P1;durP2;ratioP2;P2;SDS_P1;SDS_P2;PMS_P1;PMS_P2;Temp;Humidity;BMP_temperature;BMP_pressure;BME280_temperature;BME280_humidity;BME280_pressure;Samples;Min_cycle;Max_cycle;Signal;HPM_P1;HPM_P2
2023/10/29 00:00:43;;;;;;;3.25;1.65;;;;;;;10.82;100.00;99024.13;4976650;28;20038;-79
2023/10/29 00:03:08;;;;;;;1.92;1.70;;;;;;;10.78;100.00;99014.91;4970563;28;20391;-79
2023/10/29 00:05:33;;;;;;;2.22;1.90;;;;;;;10.86;100.00;99021.75;4971257;28;20035;-79
2023/10/29 00:07:59;;;;;;;3.15;1.73;;;;;;;10.91;100.00;99030.72;4971023;28;20486;-79
2023/10/29 00:10:24;;;;;;;3.08;1.80;;;;;;;10.96;100.00;99023.81;4971245;28;20089;-79
2023/10/29 00:12:50;;;;;;;2.17;1.80;;;;;;;10.93;100.00;99008.97;4968708;28;20031;-79
2023/10/29 00:15:15;;;;;;;2.70;1.63;;;;;;;10.96;100.00;99011.16;4970722;28;20019;-79
2023/10/29 00:17:43;;;;;;;3.30;1.55;;;;;;;10.98;100.00;99003.63;4971968;28;20043;-79
2023/10/29 00:20:09;;;;;;;2.40;1.88;;;;;;;10.96;100.00;98995.00;4974122;28;20452;-79
2023/10/29 00:22:34;;;;;;;2.92;1.70;;;;;;;10.99;100.00;98997.19;4974742;28;20027;-79
2023/10/29 00:25:00;;;;;;;2.28;1.63;;;;;;;10.99;100.00;98993.69;4973768;28;20027;-79
2023/10/29 00:27:25;;;;;;;2.60;1.90;;;;;;;11.02;100.00;98980.56;4968898;28;20079;-79
2023/10/29 00:29:50;;;;;;;2.88;1.80;;;;;;;11.01;100.00;98976.22;4975212;28;20437;-79
2023/10/29 00:32:18;;;;;;;3.00;1.60;;;;;;;11.03;100.00;98984.88;4976949;28;20065;-78
2023/10/29 00:34:46;;;;;;;3.75;1.70;;;;;;;11.06;100.00;98978.19;4976591;28;20471;-78
2023/10/29 00:37:11;;;;;;;2.85;1.70;;;;;;;11.12;100.00;98960.25;4974588;28;20062;-78
2023/10/29 00:39:36;;;;;;;3.00;1.60;;;;;;;11.13;100.00;98961.84;4977817;28;20043;-78
2023/10/29 00:42:02;;;;;;;4.15;1.70;;;;;;;11.18;100.00;98953.84;4975860;28;20533;-78
2023/10/29 00:44:27;;;;;;;3.13;1.70;;;;;;;11.21;100.00;98958.75;4975134;28;20027;-78
2023/10/29 00:46:54;;;;;;;3.25;1.75;;;;;;;11.29;100.00;98965.59;4974038;28;20045;-78
2023/10/29 00:49:19;;;;;;;1.98;1.50;;;;;;;11.34;100.00;98958.38;4960981;28;20014;-79
2023/10/29 00:51:47;;;;;;;2.88;1.60;;;;;;;11.34;100.00;98957.56;4973760;28;20034;-78
2023/10/29 00:54:13;;;;;;;1.55;1.30;;;;;;;11.43;100.00;98971.44;4973136;28;20026;-78
2023/10/29 00:56:39;;;;;;;3.10;1.67;;;;;;;11.43;100.00;98972.22;4974421;28;20041;-78
2023/10/29 00:59:04;;;;;;;2.53;1.50;;;;;;;11.52;100.00;98951.88;4970060;28;20506;-79
2023/10/29 01:01:30;;;;;;;1.95;1.42;;;;;;;11.55;100.00;98969.44;4955708;28;20026;-78
2023/10/29 01:04:02;;;;;;;2.15;1.30;;;;;;;11.51;100.00;98944.88;4971216;28;20527;-78
2023/10/29 01:06:27;;;;;;;2.83;1.55;;;;;;;11.53;100.00;98933.84;4956140;28;20035;-78
2023/10/29 01:08:53;;;;;;;2.50;1.45;;;;;;;11.57;100.00;98924.19;4954280;28;20031;-78
2023/10/29 01:11:22;;;;;;;2.45;1.40;;;;;;;11.66;100.00;98919.97;4956987;28;20031;-78
2023/10/29 01:13:47;;;;;;;2.30;1.45;;;;;;;11.74;100.00;98920.59;4974624;28;20049;-79
2023/10/29 01:16:12;;;;;;;1.60;1.20;;;;;;;11.79;100.00;98915.28;4982503;28;20432;-79
2023/10/29 01:18:38;;;;;;;2.08;1.33;;;;;;;11.72;100.00;98907.38;4983672;28;20033;-77
2023/10/29 01:21:03;;;;;;;1.17;1.08;;;;;;;11.79;100.00;98899.09;4973688;28;20049;-78
2023/10/29 01:23:29;;;;;;;1.90;1.20;;;;;;;11.86;100.00;98907.78;4973747;28;20034;-78
2023/10/29 01:25:57;;;;;;;1.88;1.30;;;;;;;11.88;100.00;98923.72;4957053;28;20083;-78
2023/10/29 01:28:23;;;;;;;3.15;1.75;;;;;;;11.89;100.00;98920.75;4973767;28;20090;-78
2023/10/29 01:30:49;;;;;;;1.88;1.60;;;;;;;11.83;100.00;98914.50;4972337;28;20081;-78
2023/10/29 01:33:14;;;;;;;4.68;1.67;;;;;;;11.79;100.00;98904.50;4973374;28;20035;-77
2023/10/29 01:35:40;;;;;;;3.28;1.50;;;;;;;11.82;100.00;98910.19;4972207;28;20376;-77
2023/10/29 01:38:05;;;;;;;3.30;1.60;;;;;;;11.83;100.00;98895.63;4971939;28;20090;-77
2023/10/29 01:40:30;;;;;;;2.50;1.60;;;;;;;11.85;100.00;98902.66;4978106;28;20027;-78
2023/10/29 01:42:56;;;;;;;2.05;1.20;;;;;;;11.83;100.00;98905.59;4989460;28;20103;-77
2023/10/29 01:45:22;;;;;;;2.10;1.42;;;;;;;11.89;100.00;98893.81;4987772;28;20038;-78
2023/10/29 01:47:47;;;;;;;3.38;1.50;;;;;;;11.89;100.00;98893.00;4968761;28;20062;-78
2023/10/29 01:50:14;;;;;;;2.58;1.33;;;;;;;11.88;100.00;98892.16;4980088;28;20110;-78
2023/10/29 01:52:40;;;;;;;3.70;1.63;;;;;;;11.85;100.00;98873.81;4973749;28;20093;-77
2023/10/29 01:55:08;;;;;;;1.88;1.30;;;;;;;11.83;100.00;98884.03;4973392;28;20043;-77
2023/10/29 01:57:35;;;;;;;2.80;1.20;;;;;;;11.80;100.00;98871.06;4981418;28;20094;-78
2023/10/29 02:00:00;;;;;;;1.55;1.30;;;;;;;11.86;100.00;98861.94;4985472;28;20046;-77
2023/10/29 02:02:26;;;;;;;2.22;1.50;;;;;;;11.89;100.00;98845.28;4977898;28;20023;-77
2023/10/29 02:04:51;;;;;;;2.50;1.30;;;;;;;11.95;100.00;98838.88;4973785;28;20903;-77
2023/10/29 02:07:16;;;;;;;2.78;1.48;;;;;;;12.03;100.00;98850.28;4971633;28;20038;-77
2023/10/29 02:09:42;;;;;;;2.70;1.40;;;;;;;12.00;100.00;98845.41;4973553;28;20042;-77
2023/10/29 02:12:07;;;;;;;1.55;1.33;;;;;;;12.00;100.00;98840.03;4968555;28;20395;-77
2023/10/29 02:14:34;;;;;;;2.65;1.33;;;;;;;12.05;100.00;98837.34;4972673;28;20081;-77
2023/10/29 02:17:00;;;;;;;3.15;1.60;;;;;;;12.15;100.00;98848.25;4977978;28;20046;-78
2023/10/29 02:19:25;;;;;;;4.22;1.50;;;;;;;12.19;100.00;98843.94;4971717;28;20030;-78
2023/10/29 02:21:54;;;;;;;3.30;1.38;;;;;;;12.21;100.00;98836.41;4972390;28;20439;-78
2023/10/29 02:24:19;;;;;;;1.55;1.30;;;;;;;12.22;100.00;98835.34;4964171;28;20109;-78
2023/10/29 02:26:45;;;;;;;1.38;0.93;;;;;;;12.21;100.00;98825.63;4970470;28;20041;-78
2023/10/29 02:29:10;;;;;;;1.20;1.10;;;;;;;12.27;100.00;98829.16;4971793;28;20023;-79
2023/10/29 02:31:35;;;;;;;2.10;1.20;;;;;;;12.24;100.00;98818.91;4972176;28;20030;-78
2023/10/29 02:34:01;;;;;;;1.20;1.10;;;;;;;12.31;100.00;98799.81;4969444;28;20035;-78
2023/10/29 02:36:26;;;;;;;1.95;1.05;;;;;;;12.26;100.00;98801.38;4971378;28;20035;-78
2023/10/29 02:38:52;;;;;;;2.42;1.17;;;;;;;12.27;100.00;98796.78;4969093;28;20027;-78
2023/10/29 02:41:17;;;;;;;1.95;1.08;;;;;;;12.25;100.00;98793.56;4971593;28;20023;-77
2023/10/29 02:43:42;;;;;;;2.70;1.40;;;;;;;12.28;100.00;98811.91;4970175;28;20027;-78
2023/10/29 02:46:08;;;;;;;1.95;1.10;;;;;;;12.34;100.00;98818.97;4971569;28;20477;-78
2023/10/29 02:48:34;;;;;;;1.70;0.90;;;;;;;12.35;100.00;98809.81;4968000;28;20399;-78
2023/10/29 02:50:59;;;;;;;1.83;1.30;;;;;;;12.33;100.00;98801.16;4967470;28;20447;-78
2023/10/29 02:53:25;;;;;;;2.05;1.20;;;;;;;12.36;100.00;98795.25;4970426;28;20042;-78
2023/10/29 02:55:50;;;;;;;2.28;1.15;;;;;;;12.34;100.00;98807.38;4972369;28;20517;-78
2023/10/29 02:58:15;;;;;;;1.17;1.00;;;;;;;12.31;100.00;98786.31;4970534;28;20035;-78
2023/10/29 03:00:41;;;;;;;2.25;2.03;;;;;;;12.36;100.00;98805.22;4970032;28;20033;-78
2023/10/29 03:03:06;;;;;;;1.65;1.00;;;;;;;12.33;100.00;98813.84;4973238;28;20023;-78
2023/10/29 03:05:32;;;;;;;2.75;1.05;;;;;;;12.39;100.00;98796.59;4970666;28;20046;-78
2023/10/29 03:07:59;;;;;;;1.65;1.00;;;;;;;12.33;100.00;98793.06;4970021;28;20471;-79
2023/10/29 03:10:25;;;;;;;2.58;1.20;;;;;;;12.27;100.00;98803.00;4975447;28;20126;-80
2023/10/29 03:12:50;;;;;;;2.78;1.00;;;;;;;12.32;100.00;98790.63;4974594;28;20415;-79
2023/10/29 03:15:16;;;;;;;4.18;1.00;;;;;;;12.31;100.00;98805.19;4972644;28;20027;-80
2023/10/29 03:17:41;;;;;;;1.60;0.98;;;;;;;12.30;100.00;98798.16;4971780;28;20035;-78
2023/10/29 03:20:07;;;;;;;2.05;1.02;;;;;;;12.32;100.00;98788.72;4970719;28;20035;-78
2023/10/29 03:22:33;;;;;;;2.97;1.13;;;;;;;12.38;100.00;98786.88;4971525;28;20045;-81
2023/10/29 03:24:58;;;;;;;1.23;1.00;;;;;;;12.36;100.00;98813.31;4971827;28;20026;-78
2023/10/29 03:27:24;;;;;;;3.35;1.20;;;;;;;12.42;100.00;98818.50;4972240;28;20958;-78
2023/10/29 03:29:49;;;;;;;1.33;1.00;;;;;;;12.49;100.00;98801.25;4971040;28;20038;-78
2023/10/29 03:32:14;;;;;;;1.52;1.00;;;;;;;12.52;100.00;98796.16;4971937;28;20065;-78
2023/10/29 03:34:40;;;;;;;1.20;1.10;;;;;;;12.51;100.00;98808.03;4974310;28;20146;-78
2023/10/29 03:37:05;;;;;;;2.10;1.00;;;;;;;12.52;100.00;98815.06;4970764;28;20089;-78
2023/10/29 03:39:31;;;;;;;1.08;0.93;;;;;;;12.57;100.00;98828.56;4969250;28;20027;-78
2023/10/29 03:41:56;;;;;;;2.38;0.90;;;;;;;12.62;100.00;98824.28;4970314;28;20038;-78
2023/10/29 03:44:24;;;;;;;1.58;0.95;;;;;;;12.68;100.00;98834.03;4972318;28;20051;-78
2023/10/29 03:46:52;;;;;;;1.85;1.10;;;;;;;12.72;100.00;98835.97;4969232;28;20054;-78
2023/10/29 03:49:18;;;;;;;1.33;0.90;;;;;;;12.73;100.00;98836.75;4970853;28;20039;-79
2023/10/29 03:51:45;;;;;;;1.83;0.98;;;;;;;12.74;100.00;98806.81;4965781;28;20027;-79
2023/10/29 03:54:10;;;;;;;2.35;0.90;;;;;;;12.81;100.00;98838.16;4971793;28;20041;-79
2023/10/29 03:56:35;;;;;;;1.58;0.88;;;;;;;12.85;100.00;98820.34;4973357;28;20364;-79
2023/10/29 03:59:01;;;;;;;1.45;0.90;;;;;;;12.91;100.00;98830.13;4976090;28;20030;-79
2023/10/29 04:01:29;;;;;;;1.08;0.90;;;;;;;12.90;100.00;98836.59;4973933;28;20464;-79
2023/10/29 04:03:55;;;;;;;1.02;0.80;;;;;;;12.93;100.00;98852.28;4972615;28;20043;-79
2023/10/29 04:06:20;;;;;;;1.27;1.00;;;;;;;12.96;100.00;98832.03;4974706;28;20070;-79
2023/10/29 04:08:45;;;;;;;4.78;0.90;;;;;;;12.95;100.00;98844.72;4975534;28;20027;-79
2023/10/29 04:11:11;;;;;;;0.85;0.77;;;;;;;12.99;100.00;98840.41;4973262;28;20023;-79
2023/10/29 04:13:39;;;;;;;2.17;0.90;;;;;;;12.95;100.00;98835.81;4973365;28;20406;-78
2023/10/29 04:16:04;;;;;;;3.28;1.00;;;;;;;12.93;100.00;98829.84;4973126;28;20143;-78
2023/10/29 04:18:31;;;;;;;1.40;0.77;;;;;;;12.95;100.00;98830.41;4965799;28;20056;-79
2023/10/29 04:20:57;;;;;;;0.85;0.77;;;;;;;12.93;100.00;98829.84;4972949;28;20368;-79
2023/10/29 04:23:23;;;;;;;0.80;0.80;;;;;;;12.86;100.00;98820.13;4973984;28;20026;-79
2023/10/29 04:25:50;;;;;;;1.38;0.68;;;;;;;12.85;100.00;98810.38;4973848;28;20052;-79
2023/10/29 04:28:16;;;;;;;0.88;0.70;;;;;;;12.79;100.00;98808.72;4974351;28;20031;-79
2023/10/29 04:30:41;;;;;;;0.93;0.90;;;;;;;12.76;100.00;98803.84;4971650;28;20027;-79
2023/10/29 04:33:08;;;;;;;1.33;0.90;;;;;;;12.74;100.00;98832.97;4973753;28;20023;-79
2023/10/29 04:35:33;;;;;;;2.00;1.00;;;;;;;12.61;100.00;98825.34;4972489;28;20482;-77
2023/10/29 04:37:58;;;;;;;1.15;0.85;;;;;;;12.55;100.00;98816.41;4972582;28;20078;-78
2023/10/29 04:40:24;;;;;;;1.10;0.88;;;;;;;12.42;100.00;98815.81;4973985;28;20042;-78
2023/10/29 04:42:49;;;;;;;1.98;0.90;;;;;;;12.41;100.00;98824.13;4972379;28;20380;-78
2023/10/29 04:45:15;;;;;;;1.35;0.98;;;;;;;12.43;100.00;98825.53;4968734;28;20023;-77
2023/10/29 04:47:40;;;;;;;1.75;0.85;;;;;;;12.36;100.00;98816.00;4974342;28;20467;-77
2023/10/29 04:50:06;;;;;;;1.20;0.80;;;;;;;12.32;100.00;98804.13;4973555;28;20459;-78
2023/10/29 04:52:32;;;;;;;1.27;0.80;;;;;;;12.34;100.00;98812.78;4975595;28;20085;-78
2023/10/29 04:54:57;;;;;;;1.70;0.80;;;;;;;12.33;100.00;98827.34;4973619;28;20113;-78
2023/10/29 04:57:23;;;;;;;1.15;0.90;;;;;;;12.43;100.00;98822.81;4976678;28;20045;-79
2023/10/29 04:59:48;;;;;;;2.10;0.80;;;;;;;12.53;100.00;98827.44;4969324;28;20031;-79
2023/10/29 05:02:16;;;;;;;1.75;1.00;;;;;;;12.52;100.00;98836.66;4975842;28;20023;-78
2023/10/29 05:04:43;;;;;;;3.30;1.02;;;;;;;12.56;100.00;98815.34;4972537;28;20035;-79
2023/10/29 05:07:09;;;;;;;2.03;0.88;;;;;;;12.63;100.00;98845.59;4972170;28;20117;-79
2023/10/29 05:09:35;;;;;;;2.40;0.85;;;;;;;12.67;100.00;98841.31;4973633;28;20027;-79
2023/10/29 05:12:00;;;;;;;0.80;0.80;;;;;;;12.71;100.00;98830.81;4970142;28;20054;-78
2023/10/29 05:14:26;;;;;;;0.68;0.68;;;;;;;12.71;100.00;98845.13;4970591;28;20054;-78
2023/10/29 05:16:52;;;;;;;3.15;1.00;;;;;;;12.77;100.00;98837.88;4974011;28;20022;-79
2023/10/29 05:19:17;;;;;;;0.80;0.80;;;;;;;12.81;100.00;98832.75;4935152;28;20177;-79
2023/10/29 05:21:42;;;;;;;0.90;0.90;;;;;;;12.81;100.00;98830.88;4975094;28;20419;-78
2023/10/29 05:24:08;;;;;;;0.70;0.70;;;;;;;12.81;100.00;98833.56;4960443;28;20039;-78
2023/10/29 05:26:33;;;;;;;1.58;0.93;;;;;;;12.83;100.00;98825.19;4994890;28;20026;-78
2023/10/29 05:28:59;;;;;;;1.67;0.90;;;;;;;12.86;100.00;98817.41;4979033;28;20423;-78
2023/10/29 05:31:24;;;;;;;1.10;0.75;;;;;;;12.86;100.00;98820.13;4975326;28;20043;-79
2023/10/29 05:33:49;;;;;;;3.45;1.00;;;;;;;12.86;100.00;98836.31;4974935;28;20295;-79
2023/10/29 05:36:15;;;;;;;1.05;0.80;;;;;;;12.78;100.00;98833.28;4973828;28;20039;-79
2023/10/29 05:38:40;;;;;;;1.35;0.80;;;;;;;12.72;100.00;98818.94;4970847;28;20033;-79
2023/10/29 05:41:06;;;;;;;1.65;0.70;;;;;;;12.79;100.00;98830.31;4971200;28;20034;-79
2023/10/29 05:43:33;;;;;;;4.00;0.93;;;;;;;12.80;100.00;98821.16;4972568;28;20051;-78
2023/10/29 05:45:59;;;;;;;1.58;0.82;;;;;;;12.74;100.00;98830.28;4966145;28;20027;-78
2023/10/29 05:48:24;;;;;;;1.25;0.95;;;;;;;12.73;99.69;98828.66;4969880;28;20076;-79
2023/10/29 05:50:49;;;;;;;1.50;0.68;;;;;;;12.79;99.07;98843.81;4973443;28;20069;-79
2023/10/29 05:53:15;;;;;;;1.48;0.90;;;;;;;12.79;99.14;98853.81;4955697;28;20034;-78
2023/10/29 05:55:40;;;;;;;2.83;0.80;;;;;;;12.78;98.92;98846.78;4972945;28;20045;-78
2023/10/29 05:58:06;;;;;;;1.17;0.80;;;;;;;12.86;96.89;98830.09;4971717;28;20030;-78
2023/10/29 06:00:32;;;;;;;2.28;1.00;;;;;;;12.89;96.35;98843.88;4974481;28;20075;-78
2023/10/29 06:02:57;;;;;;;2.72;1.15;;;;;;;12.93;96.74;98854.16;4971919;28;20521;-78
2023/10/29 06:05:23;;;;;;;3.90;0.90;;;;;;;12.89;97.27;98846.56;4971094;28;20044;-78
2023/10/29 06:07:48;;;;;;;2.28;1.05;;;;;;;12.89;97.32;98846.56;4978110;28;20034;-78
2023/10/29 06:10:13;;;;;;;3.22;1.00;;;;;;;12.85;97.51;98840.09;4973200;28;20031;-78
2023/10/29 06:12:41;;;;;;;1.88;0.80;;;;;;;12.85;97.49;98844.66;4971185;28;20035;-78
2023/10/29 06:15:11;;;;;;;1.20;0.70;;;;;;;12.81;98.15;98848.94;4972400;28;20043;-78
2023/10/29 06:17:36;;;;;;;3.30;1.00;;;;;;;12.74;98.95;98855.41;4969678;28;20049;-78
2023/10/29 06:20:04;;;;;;;1.88;1.10;;;;;;;12.72;98.61;98862.97;4972710;28;20395;-79
2023/10/29 06:22:29;;;;;;;1.90;1.00;;;;;;;12.74;97.89;98854.59;4973799;28;20552;-78
2023/10/29 06:24:55;;;;;;;1.85;0.80;;;;;;;12.85;95.95;98856.28;4975899;28;20031;-77
2023/10/29 06:27:20;;;;;;;2.72;1.02;;;;;;;12.84;96.27;98859.22;4983422;28;20034;-77
2023/10/29 06:29:45;;;;;;;1.58;0.90;;;;;;;12.82;96.51;98881.09;4972918;28;20113;-78
2023/10/29 06:32:11;;;;;;;4.43;1.10;;;;;;;12.74;99.07;98897.78;4978292;28;20031;-82
2023/10/29 06:34:39;;;;;;;3.78;0.82;;;;;;;12.52;100.00;98896.03;4961461;28;20027;-82
2023/10/29 06:37:04;;;;;;;4.07;1.10;;;;;;;12.21;100.00;98924.63;4970812;28;20069;-81
2023/10/29 06:39:31;;;;;;;2.65;0.98;;;;;;;11.80;100.00;98951.94;4971837;28;20488;-81
2023/10/29 06:41:56;;;;;;;3.33;1.10;;;;;;;11.63;100.00;98938.53;4969606;28;20023;-82
2023/10/29 06:44:23;;;;;;;3.22;1.00;;;;;;;11.57;100.00;98945.75;4967793;28;20478;-83
2023/10/29 06:46:48;;;;;;;3.42;0.93;;;;;;;11.48;100.00;98953.44;4937942;28;20554;-83
2023/10/29 06:49:13;;;;;;;2.28;0.98;;;;;;;11.38;100.00;98956.03;4972449;28;20136;-81
2023/10/29 06:51:39;;;;;;;1.70;0.70;;;;;;;11.28;100.00;98954.00;4971222;28;20402;-82
2023/10/29 06:54:05;;;;;;;2.38;0.85;;;;;;;11.32;100.00;98954.31;4972724;28;20042;-81
2023/10/29 06:56:33;;;;;;;2.80;0.90;;;;;;;11.26;100.00;98966.91;4970283;28;20026;-82
2023/10/29 06:58:59;;;;;;;2.70;1.00;;;;;;;11.30;100.00;98973.41;4971561;28;20035;-81
2023/10/29 07:01:24;;;;;;;2.72;0.93;;;;;;;11.22;100.00;98963.06;4972569;28;20391;-81
2023/10/29 07:03:50;;;;;;;2.58;1.05;;;;;;;11.23;100.00;98968.19;4970471;28;20051;-81
2023/10/29 07:06:16;;;;;;;2.72;0.90;;;;;;;11.27;100.00;98968.53;4970002;28;20076;-80
2023/10/29 07:08:41;;;;;;;3.42;1.10;;;;;;;11.27;100.00;98984.69;4972850;28;20041;-80
2023/10/29 07:11:07;;;;;;;3.17;1.50;;;;;;;11.33;100.00;98988.28;4974520;28;20039;-79
2023/10/29 07:13:32;;;;;;;1.65;0.80;;;;;;;11.46;100.00;99003.28;4969710;28;20118;-77
2023/10/29 07:15:59;;;;;;;1.55;0.88;;;;;;;11.50;100.00;98996.31;4971885;28;20097;-76
2023/10/29 07:18:24;;;;;;;2.20;0.90;;;;;;;11.53;100.00;99011.97;4973368;28;20081;-81
2023/10/29 07:20:53;;;;;;;3.53;1.38;;;;;;;11.51;100.00;99024.88;4966133;28;20027;-80
2023/10/29 07:23:19;;;;;;;3.40;0.98;;;;;;;11.48;100.00;99018.13;4972153;28;20414;-82
2023/10/29 07:25:44;;;;;;;2.47;0.82;;;;;;;11.67;100.00;99020.53;4971772;28;20490;-79
2023/10/29 07:28:10;;;;;;;2.78;1.10;;;;;;;11.62;100.00;99018.59;4973550;28;20458;-82
2023/10/29 07:30:35;;;;;;;2.13;0.90;;;;;;;11.80;100.00;99024.75;4974761;28;20026;-79
2023/10/29 07:33:01;;;;;;;1.80;0.82;;;;;;;11.89;100.00;99031.31;4974512;28;20503;-78
2023/10/29 07:35:26;;;;;;;3.83;0.90;;;;;;;11.99;100.00;99022.56;4970180;28;20042;-79
2023/10/29 07:37:51;;;;;;;3.13;1.00;;;;;;;11.98;100.00;99029.84;4974442;28;20096;-78
2023/10/29 07:40:17;;;;;;;4.15;1.40;;;;;;;11.94;100.00;99044.88;4972296;28;20468;-79
2023/10/29 07:42:42;;;;;;;4.30;1.17;;;;;;;11.94;100.00;99025.16;4972243;28;20089;-78
2023/10/29 07:45:08;;;;;;;3.28;0.90;;;;;;;12.04;100.00;99030.72;4973545;28;20035;-79
2023/10/29 07:47:33;;;;;;;2.33;1.20;;;;;;;12.11;100.00;99035.91;4977221;28;20466;-79
2023/10/29 07:49:58;;;;;;;4.80;1.20;;;;;;;12.12;100.00;99032.16;4974450;28;20026;-79
2023/10/29 07:52:24;;;;;;;4.85;1.10;;;;;;;12.64;97.83;99030.78;4973465;28;20027;-79
2023/10/29 07:54:49;;;;;;;5.95;1.30;;;;;;;14.03;89.71;99040.94;4973140;28;20542;-78
2023/10/29 07:57:14;;;;;;;3.08;1.10;;;;;;;15.32;80.79;99049.25;4967839;28;20039;-79
2023/10/29 07:59:40;;;;;;;4.28;1.13;;;;;;;16.40;75.16;99067.16;4968466;28;20101;-80
2023/10/29 08:02:05;;;;;;;3.28;1.27;;;;;;;16.89;73.04;99061.94;4968150;28;20401;-80
2023/10/29 08:04:40;;;;;;;4.05;1.10;;;;;;;16.67;73.04;99065.91;4973029;28;20034;-79
2023/10/29 08:07:05;;;;;;;4.45;1.50;;;;;;;15.97;74.02;99058.63;4969634;28;20653;-80
2023/10/29 08:09:30;;;;;;;4.97;1.20;;;;;;;15.12;76.67;99050.09;4972154;28;20026;-79
2023/10/29 08:11:56;;;;;;;4.82;1.38;;;;;;;14.64;79.12;99070.09;4971979;28;20051;-80
2023/10/29 08:14:24;;;;;;;6.60;2.75;;;;;;;14.12;82.86;99084.56;4966571;28;20055;-79
2023/10/29 08:16:49;;;;;;;7.90;1.70;;;;;;;13.96;83.83;99084.44;4970805;28;20467;-80
2023/10/29 08:19:15;;;;;;;5.25;1.33;;;;;;;13.74;83.61;99074.63;4972059;28;20080;-83
2023/10/29 08:21:40;;;;;;;2.42;1.20;;;;;;;13.63;83.61;99094.56;4968723;28;20122;-80
2023/10/29 08:24:06;;;;;;;4.45;1.25;;;;;;;13.38;85.29;99084.34;4971475;28;20023;-79
2023/10/29 08:26:34;;;;;;;5.68;1.80;;;;;;;13.22;85.50;99096.94;4970848;28;20018;-79
2023/10/29 08:28:59;;;;;;;4.32;1.20;;;;;;;13.23;83.85;99093.16;4968978;28;20055;-80
2023/10/29 08:31:25;;;;;;;5.75;1.50;;;;;;;13.31;83.61;99080.00;4973103;28;20049;-81
2023/10/29 08:34:02;;;;;;;7.15;1.30;;;;;;;13.37;84.36;99088.94;4986306;23;20057;-80
2023/10/29 08:36:28;;;;;;;6.07;1.48;;;;;;;13.36;85.37;99092.72;4943953;28;20517;-80
2023/10/29 08:38:54;;;;;;;6.63;1.60;;;;;;;13.58;84.65;99098.03;4942625;28;20039;-80
2023/10/29 08:41:43;;;;;;;6.07;1.55;;;;;;;13.90;82.85;99093.66;4947955;28;20049;-80
2023/10/29 08:44:35;;;;;;;;;;;;;;;;;;;;;
2023/10/29 08:47:01;;;;;;;5.32;1.70;;;;;;;14.14;81.14;99102.13;4954487;28;20051;-79
2023/10/29 08:49:45;;;;;;;5.18;1.52;;;;;;;14.08;79.12;99095.06;4956628;28;20035;-79
2023/10/29 08:52:13;;;;;;;6.82;1.35;;;;;;;13.94;79.40;99108.28;4954876;28;20051;-77
2023/10/29 08:54:51;;;;;;;5.28;1.52;;;;;;;14.00;78.99;99109.13;4955358;28;20031;-77
2023/10/29 08:57:16;;;;;;;4.10;1.27;;;;;;;14.14;78.59;99112.13;4953725;28;20031;-78
2023/10/29 08:59:48;;;;;;;4.97;1.17;;;;;;;14.05;78.96;99126.19;4956512;28;20384;-78
2023/10/29 09:02:13;;;;;;;8.18;1.50;;;;;;;14.08;79.30;99114.84;4962059;28;20036;-78
2023/10/29 09:04:42;;;;;;;5.47;1.30;;;;;;;13.98;79.54;99120.19;4961462;28;20026;-79
2023/10/29 09:07:08;;;;;;;4.50;1.33;;;;;;;13.89;79.01;99094.72;4964609;28;20083;-78
2023/10/29 09:09:33;;;;;;;8.45;1.30;;;;;;;13.91;78.49;99131.25;4962150;28;20090;-78
2023/10/29 09:11:58;;;;;;;5.60;1.27;;;;;;;13.94;78.82;99140.75;4966301;28;20042;-78
2023/10/29 09:14:24;;;;;;;5.60;1.40;;;;;;;13.93;80.19;99128.28;4960078;28;20417;-78
2023/10/29 09:16:49;;;;;;;6.00;1.42;;;;;;;14.22;79.10;99136.81;4960381;28;20066;-78
2023/10/29 09:19:17;;;;;;;4.28;1.20;;;;;;;14.09;80.66;99153.53;4958507;28;20041;-78
2023/10/29 09:21:48;;;;;;;6.53;1.50;;;;;;;14.14;79.72;99167.09;4954424;28;20019;-78
2023/10/29 09:24:15;;;;;;;5.70;1.60;;;;;;;14.31;79.10;99171.50;4957379;28;20110;-78
2023/10/29 09:26:41;;;;;;;6.50;1.30;;;;;;;14.40;79.33;99175.31;4955213;28;20220;-77
2023/10/29 09:29:07;;;;;;;6.03;1.48;;;;;;;14.40;76.83;99176.16;4958454;28;20557;-78
2023/10/29 09:31:33;;;;;;;5.70;1.50;;;;;;;14.46;77.43;99184.31;4957094;28;20035;-78
2023/10/29 09:33:58;;;;;;;6.28;1.35;;;;;;;14.62;76.56;99177.03;4946423;28;20416;-78
2023/10/29 09:36:24;;;;;;;5.40;1.40;;;;;;;14.58;75.26;99184.88;4956440;28;20042;-78
2023/10/29 09:38:49;;;;;;;5.65;1.10;;;;;;;14.51;73.38;99171.59;4963429;28;20082;-78
2023/10/29 09:41:16;;;;;;;4.57;1.38;;;;;;;14.40;73.18;99176.16;4951760;28;20031;-78
2023/10/29 09:43:42;;;;;;;7.20;1.30;;;;;;;14.24;74.48;99194.19;4959077;28;20439;-78
2023/10/29 09:46:07;;;;;;;5.43;1.30;;;;;;;14.24;75.11;99177.16;4925101;29;20070;-78
2023/10/29 09:48:33;;;;;;;3.08;0.90;;;;;;;14.43;74.72;99188.34;4944284;28;20043;-78
2023/10/29 09:51:00;;;;;;;5.45;1.35;;;;;;;14.52;73.18;99188.66;4957305;28;20049;-79
2023/10/29 09:53:25;;;;;;;5.88;1.30;;;;;;;14.66;72.18;99186.28;4952577;28;20149;-78
2023/10/29 09:55:51;;;;;;;5.13;1.25;;;;;;;14.65;72.58;99154.84;4926392;28;20234;-78
2023/10/29 09:58:16;;;;;;;2.33;1.00;;;;;;;14.75;70.10;99190.09;4938593;29;20035;-78
2023/10/29 10:00:42;;;;;;;6.68;1.30;;;;;;;14.65;70.66;99185.44;4955587;28;20393;-78
2023/10/29 10:03:07;;;;;;;5.03;1.20;;;;;;;14.64;70.88;99180.31;4931720;29;20027;-78
2023/10/29 10:05:34;;;;;;;8.18;1.20;;;;;;;14.64;72.33;99191.13;4964235;28;20039;-78
2023/10/29 10:08:00;;;;;;;3.85;1.25;;;;;;;14.57;72.92;99191.38;4963733;28;20049;-79
2023/10/29 10:10:52;;;;;;;5.20;1.42;;;;;;;14.57;71.54;99199.50;4960518;28;20062;-78
2023/10/29 10:13:17;;;;;;;3.55;1.25;;;;;;;14.49;71.66;99187.28;4949415;28;20519;-78
2023/10/29 10:15:43;;;;;;;5.63;1.30;;;;;;;14.45;71.81;99174.56;4962552;28;20028;-78
2023/10/29 10:18:09;;;;;;;4.95;1.20;;;;;;;14.31;71.38;99188.53;4960201;28;20074;-78
2023/10/29 10:20:35;;;;;;;6.57;1.17;;;;;;;14.20;72.52;99203.09;4954467;28;20444;-78
2023/10/29 10:26:52;;;;;;;4.53;1.30;;;;;;;14.48;70.86;99187.53;4956560;28;20164;-78
2023/10/29 10:30:04;;;;;;;6.35;1.35;;;;;;;14.68;69.46;99174.13;4944877;28;20019;-78
2023/10/29 10:32:48;;;;;;;7.75;1.45;;;;;;;14.81;68.70;99169.28;4953210;28;20034;-79
2023/10/29 10:36:14;;;;;;;4.10;1.25;;;;;;;14.75;70.22;99159.50;4950895;28;20400;-77
2023/10/29 10:42:02;;;;;;;7.35;1.58;;;;;;;14.79;69.42;99188.50;4956531;28;20053;-77
2023/10/29 10:45:05;;;;;;;6.38;1.60;;;;;;;14.87;68.79;99184.47;5384051;23;20016;-78
2023/10/29 10:48:20;;;;;;;8.02;1.30;;;;;;;14.74;69.22;99185.78;4934976;28;20030;-77
2023/10/29 10:50:46;;;;;;;5.85;1.35;;;;;;;14.74;70.46;99172.22;4951967;28;20127;-77
2023/10/29 10:53:22;;;;;;;4.85;1.30;;;;;;;14.68;70.85;99160.56;4957027;28;20035;-77
2023/10/29 10:55:48;;;;;;;3.10;1.35;;;;;;;14.58;72.77;99178.66;4933666;28;20039;-77
2023/10/29 10:58:13;;;;;;;4.85;1.40;;;;;;;14.67;73.37;99188.69;4953627;28;20047;-77
2023/10/29 11:00:38;;;;;;;6.72;1.52;;;;;;;14.64;74.07;99181.13;4923199;28;20041;-77
2023/10/29 11:03:04;;;;;;;7.57;1.35;;;;;;;14.54;74.70;99183.78;4968600;28;20023;-77
2023/10/29 11:05:30;;;;;;;3.42;1.30;;;;;;;14.56;73.88;99165.38;4958831;28;20019;-78
2023/10/29 11:07:55;;;;;;;3.92;1.15;;;;;;;14.45;74.04;99180.75;4923351;28;20074;-78
2023/10/29 11:10:21;;;;;;;3.92;1.27;;;;;;;14.38;75.25;99181.00;4942894;28;20034;-77
2023/10/29 11:12:47;;;;;;;4.55;1.33;;;;;;;14.56;73.49;99184.34;4946107;28;20049;-77
2023/10/29 11:15:15;;;;;;;4.93;1.33;;;;;;;14.55;74.91;99197.06;4946714;28;20083;-77
2023/10/29 11:17:59;;;;;;;3.95;1.38;;;;;;;14.69;73.15;99210.16;4965665;28;20026;-78
2023/10/29 11:20:45;;;;;;;4.22;1.30;;;;;;;15.20;71.64;99212.19;4968721;28;20062;-78
2023/10/29 11:23:22;;;;;;;3.47;1.15;;;;;;;15.47;70.24;99213.84;4960085;28;20121;-78
2023/10/29 11:25:47;;;;;;;4.20;1.40;;;;;;;15.39;71.19;99214.38;4960657;28;20043;-79
2023/10/29 11:28:24;;;;;;;3.88;1.30;;;;;;;15.33;70.42;99227.13;4963208;28;20050;-78
2023/10/29 11:31:14;;;;;;;3.88;1.30;;;;;;;14.93;72.15;99226.75;4959770;28;20026;-78
2023/10/29 11:33:43;;;;;;;4.70;1.50;;;;;;;14.69;73.06;99229.91;4952785;28;20053;-78
2023/10/29 11:36:35;;;;;;;4.65;1.30;;;;;;;14.52;73.23;99237.38;4955002;28;20110;-78